sensor_id;sensor_type;location;lat;lon;timestamp;temperature;humidity
43227;DHT22;28839;52.404;9.808;2022-12-16T00:05:48;-6.80;99.90
43227;DHT22;28839;52.404;9.808;2022-12-16T00:12:43;-6.80;99.90
43227;DHT22;28839;52.404;9.808;2022-12-16T00:19:37;-6.90;99.90
43227;DHT22;28839;52.404;9.808;2022-12-16T00:26:31;-7.10;99.90
43227;DHT22;28839;52.404;9.808;2022-12-16T00:33:27;-6.90;99.90
43227;DHT22;28839;52.404;9.808;2022-12-16T00:40:20;-7.10;99.90
43227;DHT22;28839;52.404;9.808;2022-12-16T00:47:14;-7.10;99.90
43227;DHT22;28839;52.404;9.808;2022-12-16T00:54:09;-7.20;99.90
43227;DHT22;28839;52.404;9.808;2022-12-16T01:01:04;-7.30;99.90
43227;DHT22;28839;52.404;9.808;2022-12-16T01:07:58;-7.30;99.90
43227;DHT22;28839;52.404;9.808;2022-12-16T01:14:53;-7.50;99.90
43227;DHT22;28839;52.404;9.808;2022-12-16T01:21:47;-7.50;99.90
43227;DHT22;28839;52.404;9.808;2022-12-16T01:28:41;-7.50;99.90
43227;DHT22;28839;52.404;9.808;2022-12-16T01:35:36;-7.50;99.90
43227;DHT22;28839;52.404;9.808;2022-12-16T01:42:30;-7.30;99.90
43227;DHT22;28839;52.404;9.808;2022-12-16T01:49:27;-7.40;99.90
43227;DHT22;28839;52.404;9.808;2022-12-16T01:56:27;-7.50;99.90
43227;DHT22;28839;52.404;9.808;2022-12-16T02:03:21;-7.60;99.90
43227;DHT22;28839;52.404;9.808;2022-12-16T02:10:15;-7.70;99.90
43227;DHT22;28839;52.404;9.808;2022-12-16T02:17:15;-7.80;99.90
43227;DHT22;28839;52.404;9.808;2022-12-16T02:24:47;-7.80;99.90
43227;DHT22;28839;52.404;9.808;2022-12-16T02:31:51;-7.80;99.90
43227;DHT22;28839;52.404;9.808;2022-12-16T02:38:52;-7.60;99.90
43227;DHT22;28839;52.404;9.808;2022-12-16T02:45:49;-7.70;99.90
43227;DHT22;28839;52.404;9.808;2022-12-16T02:52:44;-7.70;99.90
43227;DHT22;28839;52.404;9.808;2022-12-16T02:59:41;-7.80;99.90
43227;DHT22;28839;52.404;9.808;2022-12-16T03:06:38;-8.00;99.90
43227;DHT22;28839;52.404;9.808;2022-12-16T03:13:38;-8.00;99.90
43227;DHT22;28839;52.404;9.808;2022-12-16T03:20:35;-8.00;99.90
43227;DHT22;28839;52.404;9.808;2022-12-16T03:27:34;-8.10;99.90
43227;DHT22;28839;52.404;9.808;2022-12-16T03:34:36;-8.20;99.90
43227;DHT22;28839;52.404;9.808;2022-12-16T03:41:33;-8.40;99.90
43227;DHT22;28839;52.404;9.808;2022-12-16T03:48:28;-8.30;99.90
43227;DHT22;28839;52.404;9.808;2022-12-16T03:55:24;-8.40;99.90
43227;DHT22;28839;52.404;9.808;2022-12-16T04:02:17;-8.40;99.90
43227;DHT22;28839;52.404;9.808;2022-12-16T04:09:11;-8.40;99.90
43227;DHT22;28839;52.404;9.808;2022-12-16T04:16:09;-8.40;99.90
43227;DHT22;28839;52.404;9.808;2022-12-16T04:23:25;-8.40;99.90
43227;DHT22;28839;52.404;9.808;2022-12-16T04:30:38;-8.60;99.90
43227;DHT22;28839;52.404;9.808;2022-12-16T04:37:33;-8.60;99.90
43227;DHT22;28839;52.404;9.808;2022-12-16T04:44:45;-8.60;99.90
43227;DHT22;28839;52.404;9.808;2022-12-16T04:51:56;-8.70;99.90
43227;DHT22;28839;52.404;9.808;2022-12-16T04:59:08;-8.70;99.90
43227;DHT22;28839;52.404;9.808;2022-12-16T05:06:20;-8.70;99.90
43227;DHT22;28839;52.404;9.808;2022-12-16T05:13:31;-8.70;99.90
43227;DHT22;28839;52.404;9.808;2022-12-16T05:20:44;-8.80;99.90
43227;DHT22;28839;52.404;9.808;2022-12-16T05:27:55;-8.90;99.90
43227;DHT22;28839;52.404;9.808;2022-12-16T05:35:06;-9.00;99.90
43227;DHT22;28839;52.404;9.808;2022-12-16T05:42:19;-9.00;99.90
43227;DHT22;28839;52.404;9.808;2022-12-16T05:49:31;-8.90;99.90
43227;DHT22;28839;52.404;9.808;2022-12-16T05:56:42;-8.90;99.90
43227;DHT22;28839;52.404;9.808;2022-12-16T06:03:55;-8.90;99.90
43227;DHT22;28839;52.404;9.808;2022-12-16T06:11:06;-9.00;99.90
43227;DHT22;28839;52.404;9.808;2022-12-16T06:18:18;-8.90;99.90
43227;DHT22;28839;52.404;9.808;2022-12-16T06:25:33;-9.00;99.90
43227;DHT22;28839;52.404;9.808;2022-12-16T06:32:44;-8.70;99.90
43227;DHT22;28839;52.404;9.808;2022-12-16T06:39:55;-8.80;99.90
43227;DHT22;28839;52.404;9.808;2022-12-16T06:47:08;-8.90;99.90
43227;DHT22;28839;52.404;9.808;2022-12-16T06:54:22;-8.90;99.90
43227;DHT22;28839;52.404;9.808;2022-12-16T07:01:33;-8.90;99.90
43227;DHT22;28839;52.404;9.808;2022-12-16T07:08:46;-9.00;99.90
43227;DHT22;28839;52.404;9.808;2022-12-16T07:15:57;-9.00;99.90
43227;DHT22;28839;52.404;9.808;2022-12-16T07:23:09;-8.70;99.90
43227;DHT22;28839;52.404;9.808;2022-12-16T07:30:21;-8.30;99.90
43227;DHT22;28839;52.404;9.808;2022-12-16T07:37:38;-8.10;99.90
43227;DHT22;28839;52.404;9.808;2022-12-16T07:44:50;-8.00;99.90
43227;DHT22;28839;52.404;9.808;2022-12-16T07:52:03;-7.80;99.90
43227;DHT22;28839;52.404;9.808;2022-12-16T07:59:14;-7.60;99.90
43227;DHT22;28839;52.404;9.808;2022-12-16T08:06:25;-7.40;99.90
43227;DHT22;28839;52.404;9.808;2022-12-16T08:13:38;-7.20;99.90
43227;DHT22;28839;52.404;9.808;2022-12-16T08:20:55;-7.00;99.90
43227;DHT22;28839;52.404;9.808;2022-12-16T08:28:45;-6.90;99.90
43227;DHT22;28839;52.404;9.808;2022-12-16T08:35:57;-6.70;99.90
43227;DHT22;28839;52.404;9.808;2022-12-16T08:43:08;-6.30;99.90
43227;DHT22;28839;52.404;9.808;2022-12-16T08:50:21;-6.10;99.90
43227;DHT22;28839;52.404;9.808;2022-12-16T08:57:32;-5.80;99.90
43227;DHT22;28839;52.404;9.808;2022-12-16T09:04:43;-5.50;99.90
43227;DHT22;28839;52.404;9.808;2022-12-16T09:11:56;-5.30;99.90
43227;DHT22;28839;52.404;9.808;2022-12-16T09:19:08;-5.10;99.90
43227;DHT22;28839;52.404;9.808;2022-12-16T09:26:20;-4.80;99.90
43227;DHT22;28839;52.404;9.808;2022-12-16T09:33:33;-4.60;99.90
43227;DHT22;28839;52.404;9.808;2022-12-16T09:40:44;-4.40;99.90
43227;DHT22;28839;52.404;9.808;2022-12-16T09:48:02;-4.30;99.90
43227;DHT22;28839;52.404;9.808;2022-12-16T09:55:22;-4.00;99.90
43227;DHT22;28839;52.404;9.808;2022-12-16T10:02:35;-3.80;99.90
43227;DHT22;28839;52.404;9.808;2022-12-16T10:09:56;-3.50;99.90
43227;DHT22;28839;52.404;9.808;2022-12-16T10:17:14;-3.40;99.90
43227;DHT22;28839;52.404;9.808;2022-12-16T10:24:35;-3.20;99.90
43227;DHT22;28839;52.404;9.808;2022-12-16T10:31:48;-3.00;99.90
43227;DHT22;28839;52.404;9.808;2022-12-16T10:39:05;-2.90;99.90
43227;DHT22;28839;52.404;9.808;2022-12-16T10:46:28;-3.00;99.90
43227;DHT22;28839;52.404;9.808;2022-12-16T10:53:44;-2.80;99.90
43227;DHT22;28839;52.404;9.808;2022-12-16T11:00:57;-2.80;99.90
43227;DHT22;28839;52.404;9.808;2022-12-16T11:08:23;-2.50;99.90
43227;DHT22;28839;52.404;9.808;2022-12-16T11:15:34;-2.30;99.90
43227;DHT22;28839;52.404;9.808;2022-12-16T11:22:47;-2.00;99.90
43227;DHT22;28839;52.404;9.808;2022-12-16T11:30:20;-1.80;99.90
43227;DHT22;28839;52.404;9.808;2022-12-16T11:37:32;-1.50;99.90
43227;DHT22;28839;52.404;9.808;2022-12-16T11:44:47;-1.10;99.90
43227;DHT22;28839;52.404;9.808;2022-12-16T11:52:02;-1.10;99.90
43227;DHT22;28839;52.404;9.808;2022-12-16T11:59:21;-1.00;99.90
43227;DHT22;28839;52.404;9.808;2022-12-16T12:06:47;-1.30;99.90
43227;DHT22;28839;52.404;9.808;2022-12-16T12:14:11;-1.30;99.90
43227;DHT22;28839;52.404;9.808;2022-12-16T12:21:26;-1.20;99.90
43227;DHT22;28839;52.404;9.808;2022-12-16T12:28:50;-1.10;99.90
43227;DHT22;28839;52.404;9.808;2022-12-16T12:36:08;-1.30;99.90
43227;DHT22;28839;52.404;9.808;2022-12-16T12:43:45;-1.20;99.90
43227;DHT22;28839;52.404;9.808;2022-12-16T12:51:22;-0.90;99.90
43227;DHT22;28839;52.404;9.808;2022-12-16T12:58:37;-0.80;99.90
43227;DHT22;28839;52.404;9.808;2022-12-16T13:05:50;-0.90;99.90
43227;DHT22;28839;52.404;9.808;2022-12-16T13:13:34;-0.90;99.90
43227;DHT22;28839;52.404;9.808;2022-12-16T13:20:45;-1.10;99.90
43227;DHT22;28839;52.404;9.808;2022-12-16T13:27:59;-1.10;99.90
43227;DHT22;28839;52.404;9.808;2022-12-16T13:35:16;-1.10;99.90
43227;DHT22;28839;52.404;9.808;2022-12-16T13:42:48;-1.10;99.90
43227;DHT22;28839;52.404;9.808;2022-12-16T13:50:33;-1.10;99.90
43227;DHT22;28839;52.404;9.808;2022-12-16T13:57:46;-1.10;99.90
43227;DHT22;28839;52.404;9.808;2022-12-16T14:04:58;-1.10;99.90
43227;DHT22;28839;52.404;9.808;2022-12-16T14:12:19;-1.20;99.90
43227;DHT22;28839;52.404;9.808;2022-12-16T14:19:35;-1.20;99.90
43227;DHT22;28839;52.404;9.808;2022-12-16T14:26:51;-1.30;99.90
43227;DHT22;28839;52.404;9.808;2022-12-16T14:34:12;-1.30;99.90
43227;DHT22;28839;52.404;9.808;2022-12-16T14:41:24;-1.40;99.90
43227;DHT22;28839;52.404;9.808;2022-12-16T14:48:37;-1.30;99.90
43227;DHT22;28839;52.404;9.808;2022-12-16T14:55:50;-1.40;99.90
43227;DHT22;28839;52.404;9.808;2022-12-16T15:03:06;-1.40;99.90
43227;DHT22;28839;52.404;9.808;2022-12-16T15:10:21;-1.30;99.90
43227;DHT22;28839;52.404;9.808;2022-12-16T15:17:42;-1.40;99.90
43227;DHT22;28839;52.404;9.808;2022-12-16T15:24:54;-1.50;99.90
43227;DHT22;28839;52.404;9.808;2022-12-16T15:32:30;-1.50;99.90
43227;DHT22;28839;52.404;9.808;2022-12-16T15:39:55;-1.60;99.90
43227;DHT22;28839;52.404;9.808;2022-12-16T15:47:19;-1.60;99.90
43227;DHT22;28839;52.404;9.808;2022-12-16T15:54:31;-1.60;99.90
43227;DHT22;28839;52.404;9.808;2022-12-16T16:01:43;-1.60;99.90
43227;DHT22;28839;52.404;9.808;2022-12-16T16:09:13;-1.60;99.90
43227;DHT22;28839;52.404;9.808;2022-12-16T16:16:25;-1.60;99.90
43227;DHT22;28839;52.404;9.808;2022-12-16T16:23:37;-1.70;99.90
43227;DHT22;28839;52.404;9.808;2022-12-16T16:30:54;-1.70;99.90
43227;DHT22;28839;52.404;9.808;2022-12-16T16:38:07;-1.60;99.90
43227;DHT22;28839;52.404;9.808;2022-12-16T16:45:20;-1.70;99.90
43227;DHT22;28839;52.404;9.808;2022-12-16T16:52:31;-1.60;99.90
43227;DHT22;28839;52.404;9.808;2022-12-16T16:59:43;-1.70;99.90
43227;DHT22;28839;52.404;9.808;2022-12-16T17:06:55;-1.60;99.90
43227;DHT22;28839;52.404;9.808;2022-12-16T17:14:20;-1.60;99.90
43227;DHT22;28839;52.404;9.808;2022-12-16T17:21:31;-1.70;99.90
43227;DHT22;28839;52.404;9.808;2022-12-16T17:28:44;-1.60;99.90
43227;DHT22;28839;52.404;9.808;2022-12-16T17:35:55;-1.60;99.90
43227;DHT22;28839;52.404;9.808;2022-12-16T17:43:06;-1.60;99.90
43227;DHT22;28839;52.404;9.808;2022-12-16T17:50:19;-1.70;99.90
43227;DHT22;28839;52.404;9.808;2022-12-16T17:57:30;-1.70;99.90
43227;DHT22;28839;52.404;9.808;2022-12-16T18:04:42;-1.70;99.90
43227;DHT22;28839;52.404;9.808;2022-12-16T18:12:03;-1.70;99.90
43227;DHT22;28839;52.404;9.808;2022-12-16T18:19:15;-1.70;99.90
43227;DHT22;28839;52.404;9.808;2022-12-16T18:26:32;-1.80;99.90
43227;DHT22;28839;52.404;9.808;2022-12-16T18:33:42;-1.80;99.90
43227;DHT22;28839;52.404;9.808;2022-12-16T18:41:00;-1.70;99.90
43227;DHT22;28839;52.404;9.808;2022-12-16T18:48:12;-1.70;99.90
43227;DHT22;28839;52.404;9.808;2022-12-16T18:55:25;-1.70;99.90
43227;DHT22;28839;52.404;9.808;2022-12-16T19:02:36;-1.70;99.90
43227;DHT22;28839;52.404;9.808;2022-12-16T19:09:47;-1.60;99.90
43227;DHT22;28839;52.404;9.808;2022-12-16T19:17:01;-1.70;99.90
43227;DHT22;28839;52.404;9.808;2022-12-16T19:24:12;-1.80;99.90
43227;DHT22;28839;52.404;9.808;2022-12-16T19:31:25;-1.80;99.90
43227;DHT22;28839;52.404;9.808;2022-12-16T19:38:38;-1.90;99.90
43227;DHT22;28839;52.404;9.808;2022-12-16T19:45:52;-1.90;99.90
43227;DHT22;28839;52.404;9.808;2022-12-16T19:53:04;-1.80;99.90
43227;DHT22;28839;52.404;9.808;2022-12-16T20:00:17;-1.90;99.90
43227;DHT22;28839;52.404;9.808;2022-12-16T20:07:29;-2.00;99.90
43227;DHT22;28839;52.404;9.808;2022-12-16T20:14:40;-1.90;99.90
43227;DHT22;28839;52.404;9.808;2022-12-16T20:21:53;-2.00;99.90
43227;DHT22;28839;52.404;9.808;2022-12-16T20:29:19;-2.00;99.90
43227;DHT22;28839;52.404;9.808;2022-12-16T20:36:33;-2.00;99.90
43227;DHT22;28839;52.404;9.808;2022-12-16T20:43:47;-2.10;99.90
43227;DHT22;28839;52.404;9.808;2022-12-16T20:51:01;-2.10;99.90
43227;DHT22;28839;52.404;9.808;2022-12-16T20:58:16;-2.10;99.90
43227;DHT22;28839;52.404;9.808;2022-12-16T21:05:29;-2.10;99.90
43227;DHT22;28839;52.404;9.808;2022-12-16T21:12:43;-2.10;99.90
43227;DHT22;28839;52.404;9.808;2022-12-16T21:19:54;-2.20;99.90
43227;DHT22;28839;52.404;9.808;2022-12-16T21:27:07;-2.10;99.90
43227;DHT22;28839;52.404;9.808;2022-12-16T21:34:19;-2.10;99.90
43227;DHT22;28839;52.404;9.808;2022-12-16T21:41:30;-2.00;99.90
43227;DHT22;28839;52.404;9.808;2022-12-16T21:48:43;-2.20;99.90
43227;DHT22;28839;52.404;9.808;2022-12-16T21:55:54;-2.10;99.90
43227;DHT22;28839;52.404;9.808;2022-12-16T22:03:06;-2.10;99.90
43227;DHT22;28839;52.404;9.808;2022-12-16T22:10:18;-2.00;99.90
43227;DHT22;28839;52.404;9.808;2022-12-16T22:17:30;-2.00;99.90
43227;DHT22;28839;52.404;9.808;2022-12-16T22:24:41;-2.20;99.90
43227;DHT22;28839;52.404;9.808;2022-12-16T22:32:03;-2.20;99.90
43227;DHT22;28839;52.404;9.808;2022-12-16T22:39:15;-2.10;99.90
43227;DHT22;28839;52.404;9.808;2022-12-16T22:46:27;-2.30;99.90
43227;DHT22;28839;52.404;9.808;2022-12-16T22:53:40;-2.20;99.90
43227;DHT22;28839;52.404;9.808;2022-12-16T23:00:51;-2.30;99.90
43227;DHT22;28839;52.404;9.808;2022-12-16T23:08:03;-2.10;99.90
43227;DHT22;28839;52.404;9.808;2022-12-16T23:15:16;-2.30;99.90
43227;DHT22;28839;52.404;9.808;2022-12-16T23:22:30;-2.30;99.90
43227;DHT22;28839;52.404;9.808;2022-12-16T23:29:42;-2.10;99.90
43227;DHT22;28839;52.404;9.808;2022-12-16T23:36:55;-2.00;99.90
43227;DHT22;28839;52.404;9.808;2022-12-16T23:44:03;-2.30;99.90
43227;DHT22;28839;52.404;9.808;2022-12-16T23:51:14;-2.20;99.90
43227;DHT22;28839;52.404;9.808;2022-12-16T23:58:27;-2.30;99.90
